This is the latest recevied weather packets stored in our database for station/object IZ1UQG-2. If no packets are shown the sender has not sent any weather packets the latest 10 day(s).
| Time | Temp. | Humidity | Pressure | Rain* | Wind** | Luminosity | Snow |
|---|---|---|---|---|---|---|---|
| 1777727292 | 21.11° C | 42% | 1020.2 hPa | 0 mm | - | 693 W/m² | - |
| 1777726865 | 21.11° C | 42% | 1020.3 hPa | 0 mm | - | 737 W/m² | - |
| 1777726384 | 21.11° C | 42% | 1020.4 hPa | 0 mm | - | 747 W/m² | - |
| 1777726324 | 21.11° C | 42% | 1020.3 hPa | 0 mm | - | 740 W/m² | - |
| 1777726269 | 20.56° C | 42% | 1020.5 hPa | 0 mm | - | 751 W/m² | - |
| 1777725905 | 20.56° C | 42% | 1020.6 hPa | 0 mm | - | 724 W/m² | - |
| 1777725305 | 21.67° C | 42% | 1020.6 hPa | 0 mm | - | 788 W/m² | - |
| 1777724654 | 20.56° C | 43% | 1020.8 hPa | 0 mm | - | 798 W/m² | - |
| 1777724525 | 20.56° C | 43% | 1020.8 hPa | 0 mm | - | 796 W/m² | - |
| 1777724284 | 21.11° C | 41% | 1020.9 hPa | 0 mm | - | 803 W/m² | - |
| 1777723808 | 20.56° C | 43% | 1021.1 hPa | 0 mm | - | 809 W/m² | - |
| 1777722905 | 20.56° C | 43% | 1021.4 hPa | 0 mm | - | 789 W/m² | - |
| 1777722725 | 20.56° C | 42% | 1021.4 hPa | 0 mm | - | 816 W/m² | - |
| 1777722605 | 20.56° C | 42% | 1021.4 hPa | 0 mm | - | 817 W/m² | - |
| 1777722306 | 20° C | 43% | 1021.6 hPa | 0 mm | - | 798 W/m² | - |
| 1777721773 | 20° C | 43% | 1021.7 hPa | 0 mm | - | 816 W/m² | - |
| 1777721465 | 20° C | 43% | 1021.9 hPa | 0 mm | - | 784 W/m² | - |
| 1777721225 | 20° C | 43% | 1021.9 hPa | 0 mm | - | 819 W/m² | - |
| 1777721164 | 20° C | 42% | 1021.9 hPa | 0 mm | - | 809 W/m² | - |
| 1777720984 | 20.56° C | 42% | 1021.8 hPa | 0 mm | - | 805 W/m² | - |
| 1777720864 | 20° C | 42% | 1021.9 hPa | 0 mm | - | 814 W/m² | - |
| 1777720685 | 20° C | 43% | 1022 hPa | 0 mm | - | 821 W/m² | - |
| 1777719785 | 20° C | 43% | 1022.2 hPa | 0 mm | - | 809 W/m² | - |
| 1777719305 | 19.44° C | 44% | 1022.4 hPa | 0 mm | - | 809 W/m² | - |
| 1777719125 | 19.44° C | 44% | 1022.6 hPa | 0 mm | - | 809 W/m² | - |
* Rain latest hour (hover to see other rain measurements)
** Current wind speed in m/s (hover to see current wind gust speed)